createdAt,value
2019-05-16T00:01:04.226Z,4.72
2019-05-16T00:06:10.042Z,4.87
2019-05-16T00:11:15.108Z,5.10
2019-05-16T00:16:20.258Z,5.70
2019-05-16T00:21:25.710Z,5.95
2019-05-16T00:26:31.461Z,6.70
2019-05-16T00:31:38.198Z,6.72
2019-05-16T00:36:43.465Z,7.92
2019-05-16T00:41:48.910Z,7.10
2019-05-16T00:46:54.392Z,7.07
2019-05-16T00:51:59.483Z,7.05
2019-05-16T00:57:08.472Z,7.07
2019-05-16T01:02:13.512Z,7.37
2019-05-16T01:07:18.947Z,8.40
2019-05-16T01:12:24.405Z,6.80
2019-05-16T01:17:29.409Z,7.55
2019-05-16T01:22:35.127Z,6.43
2019-05-16T01:27:40.193Z,6.67
2019-05-16T01:32:45.651Z,8.67
2019-05-16T01:37:50.741Z,7.00
2019-05-16T01:42:57.843Z,7.65
2019-05-16T01:48:03.336Z,8.28
2019-05-16T01:53:08.809Z,7.40
2019-05-16T01:58:13.965Z,7.62
2019-05-16T02:03:19.239Z,7.72
2019-05-16T02:08:24.323Z,7.92
2019-05-16T02:13:29.325Z,7.45
2019-05-16T02:18:34.471Z,8.33
2019-05-16T02:23:39.833Z,7.60
2019-05-16T02:28:45.066Z,9.58
2019-05-16T02:33:53.666Z,8.93
2019-05-16T02:39:01.846Z,8.40
2019-05-16T02:44:05.953Z,8.23
2019-05-16T02:49:11.879Z,8.83
2019-05-16T02:54:21.500Z,9.53
2019-05-16T02:59:24.818Z,8.38
2019-05-16T03:04:30.823Z,11.45
2019-05-16T03:09:36.253Z,8.10
2019-05-16T03:14:42.842Z,10.17
2019-05-16T03:19:51.145Z,8.98
2019-05-16T03:24:56.569Z,9.55
2019-05-16T03:30:02.515Z,9.05
2019-05-16T03:35:14.525Z,11.23
2019-05-16T03:40:17.837Z,10.08
2019-05-16T03:45:23.078Z,10.03
2019-05-16T03:50:30.664Z,11.00
2019-05-16T03:55:35.473Z,8.73
2019-05-16T04:00:52.320Z,12.63
2019-05-16T04:05:57.317Z,11.83
2019-05-16T04:11:03.557Z,11.68
2019-05-16T04:16:11.826Z,12.50
2019-05-16T04:21:17.862Z,11.65
2019-05-16T04:26:23.569Z,11.70
2019-05-16T04:31:30.808Z,10.05
2019-05-16T04:36:35.610Z,12.45
2019-05-16T04:41:41.148Z,11.30
2019-05-16T04:46:46.631Z,11.22
2019-05-16T04:51:52.110Z,11.28
2019-05-16T04:57:01.241Z,11.25
2019-05-16T05:02:04.252Z,10.47
2019-05-16T05:07:11.165Z,12.18
2019-05-16T05:12:16.110Z,10.63
2019-05-16T05:17:21.856Z,10.93
2019-05-16T05:22:27.090Z,10.80
2019-05-16T05:27:32.676Z,10.17
2019-05-16T05:32:38.340Z,11.40
2019-05-16T05:37:43.679Z,10.75
2019-05-16T05:42:50.492Z,10.50
2019-05-16T05:47:56.158Z,8.93
2019-05-16T05:53:01.828Z,9.53
2019-05-16T05:58:06.930Z,9.70
2019-05-16T06:03:12.342Z,12.80
2019-05-16T06:08:19.933Z,9.90
2019-05-16T06:13:25.410Z,9.98
2019-05-16T06:18:30.755Z,10.97
2019-05-16T06:23:36.218Z,9.18
2019-05-16T06:28:41.965Z,9.33
2019-05-16T06:33:50.043Z,7.97
2019-05-16T06:38:54.474Z,9.57
2019-05-16T06:44:00.074Z,11.75
2019-05-16T06:49:05.213Z,8.30
2019-05-16T06:54:10.631Z,8.45
2019-05-16T06:59:16.091Z,8.78
2019-05-16T07:04:21.669Z,9.20
2019-05-16T07:09:27.302Z,7.85
2019-05-16T07:14:33.014Z,8.08
2019-05-16T07:19:40.629Z,10.53
2019-05-16T07:24:45.875Z,9.68
2019-05-16T07:29:51.170Z,9.63
2019-05-16T07:34:56.233Z,9.63
2019-05-16T07:40:16.137Z,9.88
2019-05-16T07:45:11.366Z,10.15
2019-05-16T07:50:16.913Z,9.13
2019-05-16T07:55:22.203Z,9.90
2019-05-16T08:00:45.752Z,10.73
2019-05-16T08:05:34.766Z,11.00
2019-05-16T08:10:45.526Z,10.38
2019-05-16T08:15:47.010Z,10.03
2019-05-16T08:20:52.865Z,10.07
2019-05-16T08:26:00.897Z,11.12
2019-05-16T08:31:05.555Z,13.80
2019-05-16T08:36:12.014Z,10.63
2019-05-16T08:41:21.926Z,10.30
2019-05-16T08:46:24.909Z,10.60
2019-05-16T08:51:33.189Z,10.95
2019-05-16T08:56:43.760Z,11.95
2019-05-16T09:01:52.016Z,11.37
2019-05-16T09:06:52.665Z,10.95
2019-05-16T09:11:57.878Z,9.88
2019-05-16T09:17:03.296Z,10.50
2019-05-16T09:22:08.490Z,9.88
2019-05-16T09:27:13.805Z,10.30
2019-05-16T09:32:22.042Z,11.15
2019-05-16T09:37:26.805Z,12.37
2019-05-16T09:42:32.059Z,9.20
2019-05-16T09:47:38.943Z,11.28
2019-05-16T09:52:44.143Z,12.15
2019-05-16T09:57:49.278Z,10.72
2019-05-16T10:02:54.695Z,10.50
2019-05-16T10:07:59.926Z,10.00
2019-05-16T10:13:06.807Z,9.97
2019-05-16T10:18:12.523Z,11.33
2019-05-16T10:23:18.185Z,10.23
2019-05-16T10:28:27.073Z,10.63
2019-05-16T10:33:31.367Z,9.23
2019-05-16T10:38:37.431Z,12.15
2019-05-16T10:43:43.322Z,12.50
2019-05-16T10:48:48.724Z,12.83
2019-05-16T10:54:09.490Z,10.10
2019-05-16T10:59:45.895Z,10.78
2019-05-16T11:04:08.831Z,10.65
2019-05-16T11:09:14.155Z,10.82
2019-05-16T11:14:19.769Z,11.40
2019-05-16T11:19:28.077Z,12.23
2019-05-16T11:24:31.992Z,11.30
2019-05-16T11:29:37.715Z,10.82
2019-05-16T11:34:42.798Z,10.97
2019-05-16T11:39:48.795Z,11.43
2019-05-16T11:44:53.949Z,13.00
2019-05-16T11:49:59.412Z,13.10
2019-05-16T11:55:07.404Z,10.45
2019-05-16T12:00:17.465Z,11.00
2019-05-16T12:05:21.157Z,9.53
2019-05-16T12:10:27.123Z,10.27
2019-05-16T12:15:32.653Z,11.57
2019-05-16T12:20:38.575Z,10.00
2019-05-16T12:25:43.612Z,10.40
2019-05-16T12:30:48.799Z,11.03
2019-05-16T12:35:54.403Z,10.35
2019-05-16T12:40:59.829Z,9.30
2019-05-16T12:46:07.196Z,10.75
2019-05-16T12:51:11.998Z,13.65
2019-05-16T12:56:17.690Z,11.80
2019-05-16T13:01:30.670Z,10.85
2019-05-16T13:06:31.062Z,12.70
2019-05-16T13:11:37.758Z,14.47
2019-05-16T13:16:43.948Z,13.53
2019-05-16T13:21:49.106Z,11.53
2019-05-16T13:26:57.086Z,10.98
2019-05-16T13:32:02.556Z,11.88
2019-05-16T13:37:08.234Z,10.05
2019-05-16T13:42:13.423Z,10.95
2019-05-16T13:47:19.051Z,11.40
2019-05-16T13:52:28.002Z,12.53
2019-05-16T13:57:31.636Z,12.03
2019-05-16T14:02:37.789Z,10.45
2019-05-16T14:07:43.487Z,10.23
2019-05-16T14:12:50.351Z,13.67
2019-05-16T14:17:56.829Z,9.33
2019-05-16T14:23:01.983Z,9.68
2019-05-16T14:28:07.827Z,10.03
2019-05-16T14:33:14.191Z,8.25
2019-05-16T14:38:19.694Z,9.48
2019-05-16T14:43:27.164Z,10.43
2019-05-16T14:48:32.263Z,8.65
2019-05-16T14:53:38.004Z,7.65
2019-05-16T14:58:43.794Z,9.28
2019-05-16T15:03:48.941Z,8.90
2019-05-16T15:08:56.622Z,9.47
2019-05-16T15:14:01.302Z,9.68
2019-05-16T15:19:08.191Z,8.63
2019-05-16T15:24:13.412Z,11.10
2019-05-16T15:29:19.043Z,9.10
2019-05-16T15:34:29.864Z,9.38
2019-05-16T15:39:31.511Z,10.18
2019-05-16T15:44:36.976Z,10.03
2019-05-16T15:49:42.320Z,10.65
2019-05-16T15:54:49.240Z,10.28
2019-05-16T15:59:54.636Z,9.65
2019-05-16T16:05:00.218Z,11.73
2019-05-16T16:10:07.011Z,11.00
2019-05-16T16:15:12.805Z,10.70
2019-05-16T16:20:18.122Z,11.15
2019-05-16T16:25:23.191Z,12.95
2019-05-16T16:30:29.097Z,11.80
2019-05-16T16:35:37.575Z,11.63
2019-05-16T16:40:41.718Z,11.20
2019-05-16T16:45:47.888Z,10.48
2019-05-16T16:50:53.852Z,12.07
2019-05-16T16:55:59.619Z,11.25
2019-05-16T17:01:07.333Z,12.65
2019-05-16T17:06:11.608Z,13.13
2019-05-16T17:11:16.809Z,12.88
2019-05-16T17:16:26.121Z,14.85
2019-05-16T17:21:29.985Z,14.28
2019-05-16T17:26:37.652Z,14.47
2019-05-16T17:31:41.877Z,15.43
2019-05-16T17:36:47.247Z,14.05
2019-05-16T17:41:54.908Z,13.25
2019-05-16T17:46:59.193Z,15.18
2019-05-16T17:52:06.787Z,13.80
2019-05-16T17:57:11.471Z,15.75
2019-05-16T18:02:17.294Z,15.15
2019-05-16T18:07:22.480Z,14.95
2019-05-16T18:12:27.704Z,14.83
2019-05-16T18:17:32.919Z,15.13
2019-05-16T18:22:38.497Z,15.50
2019-05-16T18:27:43.572Z,16.67
2019-05-16T18:32:49.218Z,17.60
2019-05-16T18:37:56.876Z,15.28
2019-05-16T18:43:01.610Z,14.47
2019-05-16T18:48:07.698Z,14.90
2019-05-16T18:53:13.173Z,14.55
2019-05-16T18:58:18.240Z,14.63
2019-05-16T19:03:23.720Z,16.20
2019-05-16T19:08:29.283Z,15.45
2019-05-16T19:13:36.905Z,16.60
2019-05-16T19:18:42.328Z,14.87
2019-05-16T19:23:47.686Z,15.90
2019-05-16T19:28:53.172Z,17.45
2019-05-16T19:33:58.403Z,16.42
2019-05-16T19:39:06.249Z,16.77
2019-05-16T19:44:12.008Z,17.35
2019-05-16T19:49:17.373Z,16.75
2019-05-16T19:54:22.860Z,18.02
2019-05-16T19:59:28.911Z,17.55
2019-05-16T20:04:36.474Z,14.83
2019-05-16T20:09:41.672Z,14.83
2019-05-16T20:14:47.382Z,12.40
2019-05-16T20:19:53.522Z,13.50
2019-05-16T20:24:58.880Z,12.82
2019-05-16T20:30:06.677Z,12.50
2019-05-16T20:35:11.931Z,12.45
2019-05-16T20:40:17.400Z,12.93
2019-05-16T20:45:22.895Z,14.13
2019-05-16T20:50:28.344Z,17.25
2019-05-16T20:55:33.435Z,18.82
2019-05-16T21:00:39.149Z,16.25
2019-05-16T21:05:47.653Z,16.62
2019-05-16T21:10:51.153Z,17.70
2019-05-16T21:15:57.680Z,18.55
2019-05-16T21:21:02.971Z,17.62
2019-05-16T21:26:08.708Z,18.73
2019-05-16T21:31:16.386Z,22.73
2019-05-16T21:36:21.608Z,21.73
2019-05-16T21:41:27.440Z,20.23
2019-05-16T21:46:32.635Z,21.07
2019-05-16T21:51:37.770Z,21.20
2019-05-16T21:56:43.468Z,21.85
2019-05-16T22:01:49.149Z,21.25
2019-05-16T22:06:56.612Z,23.80
2019-05-16T22:12:02.048Z,23.95
2019-05-16T22:17:07.554Z,24.83
2019-05-16T22:22:13.075Z,26.12
2019-05-16T22:27:18.999Z,29.23
2019-05-16T22:32:27.051Z,28.17
2019-05-16T22:37:31.614Z,28.57
2019-05-16T22:42:37.581Z,27.23
2019-05-16T22:47:43.041Z,27.20
2019-05-16T22:52:49.306Z,29.40
2019-05-16T22:57:56.440Z,30.40
2019-05-16T23:03:01.766Z,30.43
2019-05-16T23:08:09.972Z,30.82
2019-05-16T23:13:16.999Z,34.45
2019-05-16T23:18:22.103Z,37.93
2019-05-16T23:23:27.383Z,35.78
2019-05-16T23:28:32.465Z,36.50
2019-05-16T23:33:38.228Z,40.37
2019-05-16T23:38:43.386Z,42.55
2019-05-16T23:43:48.732Z,47.93
2019-05-16T23:48:56.417Z,56.27
2019-05-16T23:54:01.240Z,54.73
2019-05-16T23:59:06.802Z,58.20
